Harrison Township, Michigan
Current Conditions -  °F | °C
As of 6:55 PM on Monday 24 Nov 2014 (Local Time) from KMTC Reporting Station
Overcast Overcast  
Wind Chill: -1°   Ceiling: 2800
Heat Index:   Visibility: 12mi
Dew Point: -1°   Wind: 25mph
Humidity: 69%   Direction: 220°SW
Pressure: 29.5"   Gusts: 40mph
Location:  42.58°N, 82.83°W
Report Text: KMTC 242355Z 22022G35KT 12SM OVC028 05/M01 A2950 RMK PK WND 23040/33 PRESRR SLP997 T00461006 10148 20045 51058
Loading
Personal Weather Stations






























Interactive Weather Map New forecast layout! Learn more

10-Day Weather Forecast

Advertisements
Track Severe Weather on mobile